createdAt,value
2019-04-10T00:00:00.526Z,1007.08
2019-04-10T00:01:01.478Z,1007.00
2019-04-10T00:02:01.526Z,1007.11
2019-04-10T00:03:02.018Z,1007.03
2019-04-10T00:04:01.031Z,1007.11
2019-04-10T00:05:01.278Z,1007.05
2019-04-10T00:06:01.620Z,1007.06
2019-04-10T00:07:10.479Z,1007.07
2019-04-10T00:08:01.860Z,1007.09
2019-04-10T00:09:01.654Z,1007.07
2019-04-10T00:10:01.851Z,1007.08
2019-04-10T00:11:02.673Z,1007.08
2019-04-10T00:12:02.152Z,1007.05
2019-04-10T00:13:02.437Z,1007.10
2019-04-10T00:14:02.961Z,1007.05
2019-04-10T00:15:03.065Z,1007.02
2019-04-10T00:16:03.518Z,1007.07
2019-04-10T00:17:02.774Z,1007.06
2019-04-10T00:18:02.814Z,1007.09
2019-04-10T00:19:02.926Z,1007.06
2019-04-10T00:20:03.046Z,1007.06
2019-04-10T00:21:03.173Z,1007.08
2019-04-10T00:22:04.225Z,1007.08
2019-04-10T00:23:03.584Z,1007.08
2019-04-10T00:24:03.871Z,1007.09
2019-04-10T00:25:04.300Z,1007.13
2019-04-10T00:26:03.798Z,1007.10
2019-04-10T00:27:04.126Z,1007.08
2019-04-10T00:28:05.254Z,1007.08
2019-04-10T00:29:04.173Z,1007.06
2019-04-10T00:30:04.824Z,1007.12
2019-04-10T00:31:05.283Z,1007.11
2019-04-10T00:32:05.664Z,1007.09
2019-04-10T00:33:04.765Z,1007.14
2019-04-10T00:34:05.394Z,1007.14
2019-04-10T00:35:04.909Z,1007.25
2019-04-10T00:36:05.040Z,1007.16
2019-04-10T00:37:05.845Z,1007.15
2019-04-10T00:38:05.284Z,1007.17
2019-04-10T00:39:06.339Z,1007.14
2019-04-10T00:40:05.518Z,1007.19
2019-04-10T00:41:06.038Z,1007.10
2019-04-10T00:42:05.779Z,1007.10
2019-04-10T00:43:06.641Z,1007.16
2019-04-10T00:44:06.048Z,1007.08
2019-04-10T00:45:06.179Z,1007.19
2019-04-10T00:46:06.291Z,1007.20
2019-04-10T00:47:06.607Z,1007.22
2019-04-10T00:48:06.589Z,1007.21
2019-04-10T00:49:07.160Z,1007.22
2019-04-10T00:50:06.803Z,1007.22
2019-04-10T00:51:06.918Z,1007.23
2019-04-10T00:52:07.994Z,1007.25
2019-04-10T00:53:07.185Z,1007.26
2019-04-10T00:54:07.774Z,1007.22
2019-04-10T00:55:07.785Z,1007.26
2019-04-10T00:56:08.410Z,1007.24
2019-04-10T00:57:07.651Z,1007.22
2019-04-10T00:58:07.892Z,1007.21
2019-04-10T00:59:08.854Z,1007.19
2019-04-10T01:00:08.565Z,1007.23
2019-04-10T01:01:08.175Z,1007.20
2019-04-10T01:02:08.293Z,1007.17
2019-04-10T01:03:09.353Z,1007.21
2019-04-10T01:04:10.482Z,1007.14
2019-04-10T01:05:09.050Z,1007.17
2019-04-10T01:06:08.813Z,1007.19
2019-04-10T01:07:08.935Z,1007.26
2019-04-10T01:08:09.052Z,1007.21
2019-04-10T01:09:09.194Z,1007.14
2019-04-10T01:10:10.183Z,1007.22
2019-04-10T01:11:10.607Z,1007.23
2019-04-10T01:12:09.863Z,1007.22
2019-04-10T01:13:10.343Z,1007.16
2019-04-10T01:14:09.791Z,1007.15
2019-04-10T01:15:10.082Z,1007.21
2019-04-10T01:16:11.210Z,1007.14
2019-04-10T01:17:10.167Z,1007.19
2019-04-10T01:18:10.954Z,1007.14
2019-04-10T01:19:10.406Z,1007.18
2019-04-10T01:20:10.576Z,1007.18
2019-04-10T01:21:11.142Z,1007.16
2019-04-10T01:22:10.803Z,1007.18
2019-04-10T01:23:11.886Z,1007.22
2019-04-10T01:24:11.161Z,1007.15
2019-04-10T01:25:12.378Z,1007.16
2019-04-10T01:26:11.306Z,1007.15
2019-04-10T01:27:11.788Z,1007.16
2019-04-10T01:28:12.252Z,1007.12
2019-04-10T01:29:11.677Z,1007.13
2019-04-10T01:30:11.785Z,1007.16
2019-04-10T01:31:12.674Z,1007.12
2019-04-10T01:32:12.090Z,1007.17
2019-04-10T01:33:12.473Z,1007.13
2019-04-10T01:34:12.280Z,1007.12
2019-04-10T01:35:12.391Z,1007.21
2019-04-10T01:36:13.111Z,1007.17
2019-04-10T01:37:12.809Z,1007.15
2019-04-10T01:38:13.447Z,1007.17
2019-04-10T01:39:13.794Z,1007.19
2019-04-10T01:40:13.170Z,1007.21
2019-04-10T01:41:13.301Z,1007.25
2019-04-10T01:42:14.517Z,1007.14
2019-04-10T01:43:17.541Z,1007.24
2019-04-10T01:44:13.664Z,1007.18
2019-04-10T01:45:13.775Z,1007.13
2019-04-10T01:46:13.893Z,1007.19
2019-04-10T01:47:15.089Z,1007.16
2019-04-10T01:48:14.172Z,1007.19
2019-04-10T01:49:14.278Z,1007.24
2019-04-10T01:50:14.565Z,1007.21
2019-04-10T01:51:15.163Z,1007.17
2019-04-10T01:52:15.097Z,1007.18
2019-04-10T01:53:14.792Z,1007.15
2019-04-10T01:54:15.181Z,1007.21
2019-04-10T01:55:23.916Z,1007.21
2019-04-10T01:56:23.985Z,1007.17
2019-04-10T01:57:15.261Z,1007.16
2019-04-10T01:58:15.384Z,1007.18
2019-04-10T01:59:15.929Z,1007.19
2019-04-10T02:00:15.622Z,1007.20
2019-04-10T02:01:16.548Z,1007.26
2019-04-10T02:02:16.851Z,1007.25
2019-04-10T02:03:16.062Z,1007.27
2019-04-10T02:04:16.357Z,1007.17
2019-04-10T02:05:16.560Z,1007.24
2019-04-10T02:06:16.843Z,1007.17
2019-04-10T02:07:16.491Z,1007.23
2019-04-10T02:08:17.870Z,1007.18
2019-04-10T02:09:16.759Z,1007.18
2019-04-10T02:10:17.050Z,1007.17
2019-04-10T02:11:17.514Z,1007.14
2019-04-10T02:12:17.110Z,1007.19
2019-04-10T02:13:17.247Z,1007.22
2019-04-10T02:14:18.378Z,1007.26
2019-04-10T02:15:17.785Z,1007.29
2019-04-10T02:16:18.785Z,1007.28
2019-04-10T02:17:17.756Z,1007.28
2019-04-10T02:18:17.864Z,1007.31
2019-04-10T02:19:18.443Z,1007.29
2019-04-10T02:20:18.961Z,1007.26
2019-04-10T02:21:18.224Z,1007.25
2019-04-10T02:22:18.353Z,1007.27
2019-04-10T02:23:19.343Z,1007.31
2019-04-10T02:24:18.812Z,1007.30
2019-04-10T02:25:19.856Z,1007.23
2019-04-10T02:26:19.154Z,1007.28
2019-04-10T02:27:18.981Z,1007.26
2019-04-10T02:28:19.092Z,1007.23
2019-04-10T02:29:19.677Z,1007.26
2019-04-10T02:30:19.788Z,1007.29
2019-04-10T02:31:21.360Z,1007.35
2019-04-10T02:32:21.095Z,1007.24
2019-04-10T02:33:19.776Z,1007.27
2019-04-10T02:34:21.261Z,1007.29
2019-04-10T02:35:23.704Z,1007.30
2019-04-10T02:36:21.292Z,1007.30
2019-04-10T02:37:20.211Z,1007.29
2019-04-10T02:38:37.446Z,1007.27
2019-04-10T02:39:27.822Z,1007.29
2019-04-10T02:40:21.322Z,1007.28
2019-04-10T02:41:21.610Z,1007.28
2019-04-10T02:42:21.018Z,1007.25
2019-04-10T02:43:21.223Z,1007.28
2019-04-10T02:44:22.788Z,1007.26
2019-04-10T02:45:21.929Z,1007.32
2019-04-10T02:46:22.039Z,1007.29
2019-04-10T02:47:22.914Z,1007.29
2019-04-10T02:48:21.587Z,1007.26
2019-04-10T02:49:22.457Z,1007.25
2019-04-10T02:50:21.826Z,1007.28
2019-04-10T02:51:23.632Z,1007.29
2019-04-10T02:52:22.622Z,1007.27
2019-04-10T02:53:23.340Z,1007.30
2019-04-10T02:54:22.334Z,1007.25
2019-04-10T02:55:22.976Z,1007.27
2019-04-10T02:56:23.763Z,1007.15
2019-04-10T02:57:22.815Z,1007.27
2019-04-10T02:58:24.169Z,1007.28
2019-04-10T02:59:23.776Z,1007.21
2019-04-10T03:00:24.470Z,1007.21
2019-04-10T03:01:23.565Z,1007.19
2019-04-10T03:02:24.269Z,1007.22
2019-04-10T03:03:23.472Z,1007.22
2019-04-10T03:04:24.494Z,1007.21
2019-04-10T03:05:25.724Z,1007.24
2019-04-10T03:06:23.868Z,1007.22
2019-04-10T03:07:24.133Z,1007.26
2019-04-10T03:08:41.347Z,1007.26
2019-04-10T03:09:37.234Z,1007.28
2019-04-10T03:10:33.960Z,1007.23
2019-04-10T03:11:26.478Z,1007.29
2019-04-10T03:12:24.646Z,1007.32
2019-04-10T03:13:26.875Z,1007.37
2019-04-10T03:14:26.248Z,1007.31
2019-04-10T03:15:25.319Z,1007.35
2019-04-10T03:16:25.129Z,1007.29
2019-04-10T03:17:26.062Z,1007.33
2019-04-10T03:18:25.359Z,1007.34
2019-04-10T03:19:25.591Z,1007.30
2019-04-10T03:20:26.559Z,1007.28
2019-04-10T03:21:25.723Z,1007.29
2019-04-10T03:22:26.574Z,1007.32
2019-04-10T03:23:25.973Z,1007.27
2019-04-10T03:24:26.108Z,1007.29
2019-04-10T03:25:26.705Z,1007.30
2019-04-10T03:26:26.338Z,1007.36
2019-04-10T03:27:26.476Z,1007.33
2019-04-10T03:28:27.064Z,1007.29
2019-04-10T03:29:27.432Z,1007.34
2019-04-10T03:30:27.384Z,1007.31
2019-04-10T03:31:29.009Z,1007.30
2019-04-10T03:32:31.095Z,1007.25
2019-04-10T03:33:30.430Z,1007.28
2019-04-10T03:34:30.403Z,1007.26
2019-04-10T03:35:27.455Z,1007.30
2019-04-10T03:36:27.567Z,1007.29
2019-04-10T03:37:28.583Z,1007.30
2019-04-10T03:38:27.893Z,1007.34
2019-04-10T03:39:27.951Z,1007.28
2019-04-10T03:40:29.133Z,1007.32
2019-04-10T03:41:28.270Z,1007.26
2019-04-10T03:42:28.685Z,1007.29
2019-04-10T03:43:28.457Z,1007.25
2019-04-10T03:44:28.579Z,1007.25
2019-04-10T03:45:28.694Z,1007.28
2019-04-10T03:46:29.752Z,1007.24
2019-04-10T03:47:28.933Z,1007.31
2019-04-10T03:48:29.323Z,1007.30
2019-04-10T03:49:29.703Z,1007.28
2019-04-10T03:50:29.988Z,1007.30
2019-04-10T03:51:30.334Z,1007.28
2019-04-10T03:52:29.586Z,1007.23
2019-04-10T03:53:29.976Z,1007.25
2019-04-10T03:54:30.165Z,1007.32
2019-04-10T03:55:29.956Z,1007.29
2019-04-10T03:56:30.075Z,1007.27
2019-04-10T03:57:30.904Z,1007.31
2019-04-10T03:58:31.442Z,1007.37
2019-04-10T03:59:30.619Z,1007.32
2019-04-10T04:00:30.570Z,1007.34
2019-04-10T04:01:31.926Z,1007.37
2019-04-10T04:02:31.595Z,1007.33
2019-04-10T04:03:30.930Z,1007.36
2019-04-10T04:04:31.294Z,1007.37
2019-04-10T04:05:31.192Z,1007.42
2019-04-10T04:06:31.482Z,1007.32
2019-04-10T04:07:32.551Z,1007.42
2019-04-10T04:08:32.016Z,1007.41
2019-04-10T04:09:31.695Z,1007.40
2019-04-10T04:10:32.839Z,1007.39
2019-04-10T04:11:31.968Z,1007.40
2019-04-10T04:12:32.834Z,1007.38
2019-04-10T04:13:33.283Z,1007.35
2019-04-10T04:14:32.619Z,1007.42
2019-04-10T04:15:32.445Z,1007.42
2019-04-10T04:16:33.265Z,1007.42
2019-04-10T04:17:32.708Z,1007.37
2019-04-10T04:18:33.270Z,1007.41
2019-04-10T04:19:32.942Z,1007.41
2019-04-10T04:20:33.066Z,1007.42
2019-04-10T04:21:34.122Z,1007.40
2019-04-10T04:22:33.480Z,1007.44
2019-04-10T04:23:34.029Z,1007.39
2019-04-10T04:24:33.721Z,1007.43
2019-04-10T04:25:34.535Z,1007.47
2019-04-10T04:26:35.010Z,1007.47
2019-04-10T04:27:34.079Z,1007.44
2019-04-10T04:28:34.346Z,1007.44
2019-04-10T04:29:34.543Z,1007.47
2019-04-10T04:30:34.451Z,1007.43
2019-04-10T04:31:35.431Z,1007.48
2019-04-10T04:32:34.697Z,1007.52
2019-04-10T04:33:34.841Z,1007.51
2019-04-10T04:34:34.971Z,1007.50
2019-04-10T04:35:35.083Z,1007.59
2019-04-10T04:36:35.298Z,1007.60
2019-04-10T04:37:35.758Z,1007.64
2019-04-10T04:38:35.445Z,1007.67
2019-04-10T04:39:35.596Z,1007.53
2019-04-10T04:40:35.727Z,1007.55
2019-04-10T04:41:35.946Z,1007.57
2019-04-10T04:42:35.943Z,1007.63
2019-04-10T04:43:37.094Z,1007.60
2019-04-10T04:44:36.190Z,1007.62
2019-04-10T04:45:36.329Z,1007.65
2019-04-10T04:46:36.539Z,1007.58
2019-04-10T04:47:36.556Z,1007.62
2019-04-10T04:48:36.918Z,1007.64
2019-04-10T04:49:37.750Z,1007.67
2019-04-10T04:50:38.124Z,1007.64
2019-04-10T04:51:37.064Z,1007.67
2019-04-10T04:52:37.188Z,1007.66
2019-04-10T04:53:37.298Z,1007.69
2019-04-10T04:54:37.413Z,1007.68
2019-04-10T04:55:37.538Z,1007.76
2019-04-10T04:56:37.701Z,1007.74
2019-04-10T04:57:39.144Z,1007.83
2019-04-10T04:58:38.187Z,1007.80
2019-04-10T04:59:38.602Z,1007.83
2019-04-10T05:00:38.177Z,1007.85
2019-04-10T05:01:38.440Z,1007.85
2019-04-10T05:02:39.196Z,1007.86
2019-04-10T05:03:38.610Z,1007.89
2019-04-10T05:04:39.594Z,1007.98
2019-04-10T05:05:39.120Z,1007.97
2019-04-10T05:06:39.571Z,1007.94
2019-04-10T05:07:39.731Z,1007.98
2019-04-10T05:08:39.948Z,1007.96
2019-04-10T05:09:40.678Z,1008.01
2019-04-10T05:10:39.876Z,1008.00
2019-04-10T05:11:39.549Z,1008.06
2019-04-10T05:12:39.679Z,1008.03
2019-04-10T05:13:40.287Z,1008.00
2019-04-10T05:14:40.027Z,1008.09
2019-04-10T05:15:40.828Z,1008.10
2019-04-10T05:16:40.173Z,1008.10
2019-04-10T05:17:41.474Z,1008.09
2019-04-10T05:18:40.424Z,1008.13
2019-04-10T05:19:40.648Z,1008.12
2019-04-10T05:20:45.913Z,1008.16
2019-04-10T05:21:41.487Z,1008.09
2019-04-10T05:22:41.628Z,1008.02
2019-04-10T05:23:41.032Z,1008.11
2019-04-10T05:24:41.160Z,1008.07
2019-04-10T05:25:41.531Z,1008.15
2019-04-10T05:26:41.411Z,1008.19
2019-04-10T05:27:41.534Z,1008.22
2019-04-10T05:28:41.642Z,1008.18
2019-04-10T05:29:42.913Z,1008.21
2019-04-10T05:30:41.910Z,1008.21
2019-04-10T05:31:42.638Z,1008.36
2019-04-10T05:32:42.153Z,1008.30
2019-04-10T05:33:42.267Z,1008.29
2019-04-10T05:34:43.337Z,1008.31
2019-04-10T05:35:42.554Z,1008.31
2019-04-10T05:36:42.665Z,1008.43
2019-04-10T05:37:43.517Z,1008.41
2019-04-10T05:38:43.918Z,1008.43
2019-04-10T05:39:47.565Z,1008.38
2019-04-10T05:40:44.186Z,1008.44
2019-04-10T05:41:44.033Z,1008.43
2019-04-10T05:42:43.398Z,1008.46
2019-04-10T05:43:44.614Z,1008.46
2019-04-10T05:44:44.377Z,1008.50
2019-04-10T05:45:43.755Z,1008.59
2019-04-10T05:46:45.057Z,1008.53
2019-04-10T05:47:44.429Z,1008.59
2019-04-10T05:48:44.173Z,1008.61
2019-04-10T05:49:45.014Z,1008.59
2019-04-10T05:50:54.034Z,1008.60
2019-04-10T05:51:45.660Z,1008.56
2019-04-10T05:52:45.090Z,1008.52
2019-04-10T05:53:44.944Z,1008.53
2019-04-10T05:54:44.881Z,1008.52
2019-04-10T05:55:45.286Z,1008.69
2019-04-10T05:56:45.143Z,1008.63
2019-04-10T05:57:45.266Z,1008.54
2019-04-10T05:58:45.374Z,1008.56
2019-04-10T05:59:45.935Z,1008.61
2019-04-10T06:00:45.629Z,1008.65
2019-04-10T06:01:45.800Z,1008.61
2019-04-10T06:02:46.036Z,1008.56
2019-04-10T06:03:47.186Z,1008.64
2019-04-10T06:04:46.130Z,1008.59
2019-04-10T06:05:46.548Z,1008.60
2019-04-10T06:06:46.564Z,1008.71
2019-04-10T06:07:47.351Z,1008.68
2019-04-10T06:08:47.053Z,1008.71
2019-04-10T06:09:55.748Z,1008.63
2019-04-10T06:10:47.825Z,1008.75
2019-04-10T06:11:47.354Z,1008.68
2019-04-10T06:12:47.129Z,1008.73
2019-04-10T06:13:47.235Z,1008.65
2019-04-10T06:14:48.523Z,1008.74
2019-04-10T06:15:47.518Z,1008.73
2019-04-10T06:16:47.617Z,1008.73
2019-04-10T06:17:48.923Z,1008.76
2019-04-10T06:18:47.856Z,1008.71
2019-04-10T06:19:48.951Z,1008.72
2019-04-10T06:20:49.311Z,1008.66
2019-04-10T06:21:48.244Z,1008.73
2019-04-10T06:22:48.343Z,1008.72
2019-04-10T06:23:49.539Z,1008.72
2019-04-10T06:24:48.815Z,1008.68
2019-04-10T06:25:49.882Z,1008.72
2019-04-10T06:26:49.986Z,1008.73
2019-04-10T06:27:48.998Z,1008.72
2019-04-10T06:28:49.114Z,1008.71
2019-04-10T06:29:49.223Z,1008.70
2019-04-10T06:30:50.315Z,1008.74
2019-04-10T06:31:49.511Z,1008.67
2019-04-10T06:32:49.628Z,1008.67
2019-04-10T06:33:50.575Z,1008.72
2019-04-10T06:34:50.252Z,1008.69
2019-04-10T06:35:50.931Z,1008.70
2019-04-10T06:36:50.094Z,1008.75
2019-04-10T06:37:50.475Z,1008.75
2019-04-10T06:38:50.858Z,1008.68
2019-04-10T06:39:51.136Z,1008.74
2019-04-10T06:40:50.585Z,1008.82
2019-04-10T06:41:50.895Z,1008.78
2019-04-10T06:42:53.945Z,1008.79
2019-04-10T06:43:50.971Z,1008.78
2019-04-10T06:44:51.092Z,1008.73
2019-04-10T06:45:52.311Z,1008.76
2019-04-10T06:46:51.337Z,1008.78
2019-04-10T06:47:51.460Z,1008.73
2019-04-10T06:48:52.049Z,1008.72
2019-04-10T06:49:52.599Z,1008.73
2019-04-10T06:50:51.831Z,1008.75
2019-04-10T06:51:51.949Z,1008.73
2019-04-10T06:52:52.074Z,1008.77
2019-04-10T06:54:00.855Z,1008.82
2019-04-10T06:54:53.975Z,1008.78
2019-04-10T06:55:52.459Z,1008.82
2019-04-10T06:56:52.604Z,1008.79
2019-04-10T06:57:56.170Z,1008.79
2019-04-10T06:58:52.956Z,1008.83
2019-04-10T06:59:52.977Z,1008.78
2019-04-10T07:00:54.894Z,1008.87
2019-04-10T07:01:56.398Z,1008.86
2019-04-10T07:02:53.337Z,1008.90
2019-04-10T07:04:01.725Z,1008.84
2019-04-10T07:04:56.149Z,1008.82
2019-04-10T07:06:06.241Z,1008.85
2019-04-10T07:07:00.770Z,1008.88
2019-04-10T07:08:01.817Z,1008.84
2019-04-10T07:08:55.336Z,1008.85
2019-04-10T07:09:55.102Z,1008.87
2019-04-10T07:11:02.005Z,1008.84
2019-04-10T07:11:58.352Z,1008.89
2019-04-10T07:12:55.384Z,1008.85
2019-04-10T07:13:56.097Z,1008.89
2019-04-10T07:14:58.044Z,1008.88
2019-04-10T07:15:58.066Z,1008.85
2019-04-10T07:16:55.099Z,1008.81
2019-04-10T07:17:55.486Z,1008.86
2019-04-10T07:18:58.321Z,1008.85
2019-04-10T07:19:55.655Z,1008.83
2019-04-10T07:20:58.323Z,1008.78
2019-04-10T07:21:58.450Z,1008.90
2019-04-10T07:22:56.979Z,1008.85
2019-04-10T07:24:01.185Z,1008.82
2019-04-10T07:24:56.455Z,1008.89
2019-04-10T07:25:56.428Z,1008.80
2019-04-10T07:26:58.049Z,1008.81
2019-04-10T07:27:56.468Z,1008.78
2019-04-10T07:28:58.787Z,1008.76
2019-04-10T07:29:59.438Z,1008.76
2019-04-10T07:30:59.412Z,1008.84
2019-04-10T07:31:56.972Z,1008.85
2019-04-10T07:32:57.151Z,1008.81
2019-04-10T07:33:57.218Z,1008.78
2019-04-10T07:34:59.182Z,1008.81
2019-04-10T07:35:57.460Z,1008.81
2019-04-10T07:36:58.133Z,1008.85
2019-04-10T07:37:58.481Z,1008.83
2019-04-10T07:38:57.876Z,1008.87
2019-04-10T07:40:01.689Z,1008.84
2019-04-10T07:40:58.901Z,1008.86
2019-04-10T07:41:58.229Z,1008.98
2019-04-10T07:42:58.741Z,1008.90
2019-04-10T07:43:58.746Z,1008.82
2019-04-10T07:44:58.602Z,1008.88
2019-04-10T07:45:58.726Z,1008.85
2019-04-10T07:47:00.696Z,1008.89
2019-04-10T07:47:58.975Z,1008.91
2019-04-10T07:48:59.087Z,1008.88
2019-04-10T07:50:00.368Z,1008.93
2019-04-10T07:50:59.367Z,1008.90
2019-04-10T07:52:01.911Z,1008.94
2019-04-10T07:52:59.851Z,1008.97
2019-04-10T07:53:59.828Z,1008.96
2019-04-10T07:55:00.910Z,1009.01
2019-04-10T07:56:06.514Z,1009.01
2019-04-10T07:57:00.137Z,1009.03
2019-04-10T07:58:00.242Z,1008.95
2019-04-10T07:59:00.598Z,1008.97
2019-04-10T08:00:00.909Z,1008.97
2019-04-10T08:01:00.982Z,1008.94
2019-04-10T08:02:00.733Z,1009.00
2019-04-10T08:03:00.889Z,1008.96
2019-04-10T08:04:01.871Z,1008.91
2019-04-10T08:05:02.295Z,1008.94
2019-04-10T08:06:02.326Z,1008.97
2019-04-10T08:07:01.374Z,1008.99
2019-04-10T08:08:01.522Z,1008.97
2019-04-10T08:09:01.644Z,1009.01
2019-04-10T08:10:01.763Z,1008.99
2019-04-10T08:11:01.888Z,1008.99
2019-04-10T08:12:02.961Z,1009.05
2019-04-10T08:13:02.446Z,1009.03
2019-04-10T08:14:03.457Z,1008.92
2019-04-10T08:15:02.848Z,1008.97
2019-04-10T08:16:02.837Z,1009.00
2019-04-10T08:17:03.676Z,1008.94
2019-04-10T08:18:02.772Z,1009.01
2019-04-10T08:19:04.038Z,1008.97
2019-04-10T08:20:03.773Z,1008.97
2019-04-10T08:21:03.145Z,1009.02
2019-04-10T08:22:03.676Z,1008.98
2019-04-10T08:23:03.650Z,1009.05
2019-04-10T08:24:03.508Z,1009.03
2019-04-10T08:25:04.359Z,1008.94
2019-04-10T08:26:03.748Z,1009.01
2019-04-10T08:27:03.866Z,1009.07
2019-04-10T08:28:03.989Z,1009.07
2019-04-10T08:29:04.125Z,1009.09
2019-04-10T08:30:05.270Z,1009.02
2019-04-10T08:31:04.503Z,1009.09
2019-04-10T08:32:05.601Z,1009.10
2019-04-10T08:33:05.953Z,1009.07
2019-04-10T08:34:04.762Z,1009.02
2019-04-10T08:35:05.075Z,1009.11
2019-04-10T08:36:05.351Z,1009.00
2019-04-10T08:37:05.267Z,1009.13
2019-04-10T08:38:05.542Z,1009.05
2019-04-10T08:39:06.700Z,1009.04
2019-04-10T08:40:05.664Z,1009.07
2019-04-10T08:41:05.776Z,1009.13
2019-04-10T08:42:06.484Z,1009.02
2019-04-10T08:43:06.316Z,1009.05
2019-04-10T08:44:06.524Z,1008.99
2019-04-10T08:45:07.086Z,1009.10
2019-04-10T08:46:06.412Z,1009.01
2019-04-10T08:47:06.766Z,1009.10
2019-04-10T08:48:06.651Z,1009.18
2019-04-10T08:49:07.799Z,1009.18
2019-04-10T08:50:07.789Z,1009.12
2019-04-10T08:51:07.030Z,1009.07
2019-04-10T08:52:08.238Z,1009.18
2019-04-10T08:53:07.266Z,1009.12
2019-04-10T08:54:07.926Z,1009.18
2019-04-10T08:55:07.949Z,1009.10
2019-04-10T08:56:07.668Z,1009.17
2019-04-10T08:57:07.814Z,1009.13
2019-04-10T08:58:08.327Z,1009.16
2019-04-10T08:59:08.052Z,1009.15
2019-04-10T09:00:08.275Z,1009.16
2019-04-10T09:01:09.136Z,1009.15
2019-04-10T09:02:09.423Z,1009.14
2019-04-10T09:03:08.820Z,1009.19
2019-04-10T09:04:09.462Z,1009.20
2019-04-10T09:05:09.591Z,1009.18
2019-04-10T09:06:09.784Z,1009.18
2019-04-10T09:07:09.895Z,1009.19
2019-04-10T09:08:10.802Z,1009.15
2019-04-10T09:09:10.153Z,1009.15
2019-04-10T09:10:10.369Z,1009.17
2019-04-10T09:11:11.225Z,1009.27
2019-04-10T09:12:10.519Z,1009.22
2019-04-10T09:13:10.653Z,1009.15
2019-04-10T09:14:10.789Z,1009.19
2019-04-10T09:15:11.850Z,1009.16
2019-04-10T09:16:12.083Z,1009.20
2019-04-10T09:17:11.256Z,1009.33
2019-04-10T09:18:11.726Z,1009.19
2019-04-10T09:19:11.979Z,1009.20
2019-04-10T09:20:11.510Z,1009.12
2019-04-10T09:21:11.631Z,1009.10
2019-04-10T09:22:12.064Z,1009.14
2019-04-10T09:23:27.737Z,1009.10
2019-04-10T09:24:14.830Z,1009.09
2019-04-10T09:25:13.155Z,1009.12
2019-04-10T09:26:13.353Z,1009.09
2019-04-10T09:27:13.039Z,1009.16
2019-04-10T09:28:12.532Z,1009.08
2019-04-10T09:29:12.645Z,1009.11
2019-04-10T09:30:12.892Z,1009.11
2019-04-10T09:31:13.543Z,1009.12
2019-04-10T09:32:13.006Z,1009.13
2019-04-10T09:33:19.745Z,1009.10
2019-04-10T09:34:13.791Z,1009.12
2019-04-10T09:35:14.098Z,1009.19
2019-04-10T09:36:13.520Z,1009.15
2019-04-10T09:37:13.643Z,1009.16
2019-04-10T09:38:14.622Z,1009.09
2019-04-10T09:39:14.765Z,1009.11
2019-04-10T09:40:14.138Z,1009.05
2019-04-10T09:41:14.155Z,1009.12
2019-04-10T09:42:14.903Z,1009.10
2019-04-10T09:43:15.695Z,1009.01
2019-04-10T09:44:14.546Z,1009.10
2019-04-10T09:45:15.638Z,1009.10
2019-04-10T09:46:14.812Z,1009.10
2019-04-10T09:47:14.949Z,1009.19
2019-04-10T09:48:15.072Z,1009.09
2019-04-10T09:49:15.198Z,1009.11
2019-04-10T09:50:15.328Z,1009.20
2019-04-10T09:51:18.000Z,1009.13
2019-04-10T09:52:15.615Z,1009.12
2019-04-10T09:53:15.715Z,1009.15
2019-04-10T09:54:15.842Z,1009.12
2019-04-10T09:55:16.103Z,1009.10
2019-04-10T09:56:17.175Z,1009.14
2019-04-10T09:57:16.269Z,1009.10
2019-04-10T09:58:17.530Z,1009.07
2019-04-10T09:59:16.496Z,1009.12
2019-04-10T10:00:16.614Z,1009.09
2019-04-10T10:01:17.783Z,1009.17
2019-04-10T10:02:17.685Z,1009.12
2019-04-10T10:03:17.411Z,1009.10
2019-04-10T10:04:17.376Z,1009.15
2019-04-10T10:05:18.160Z,1009.08
2019-04-10T10:06:27.363Z,1009.17
2019-04-10T10:07:18.584Z,1009.12
2019-04-10T10:08:18.395Z,1009.14
2019-04-10T10:09:17.847Z,1009.14
2019-04-10T10:10:17.967Z,1009.20
2019-04-10T10:11:18.169Z,1009.14
2019-04-10T10:12:18.191Z,1009.13
2019-04-10T10:13:18.336Z,1009.15
2019-04-10T10:14:18.855Z,1009.11
2019-04-10T10:15:18.962Z,1009.01
2019-04-10T10:16:18.967Z,1008.98
2019-04-10T10:17:18.899Z,1009.05
2019-04-10T10:18:19.323Z,1009.02
2019-04-10T10:19:19.118Z,1009.05
2019-04-10T10:20:19.658Z,1009.07
2019-04-10T10:21:19.366Z,1009.07
2019-04-10T10:22:19.482Z,1008.96
2019-04-10T10:23:20.009Z,1009.02
2019-04-10T10:24:19.745Z,1009.09
2019-04-10T10:25:19.879Z,1009.11
2019-04-10T10:26:19.992Z,1009.02
2019-04-10T10:27:20.128Z,1009.06
2019-04-10T10:28:20.763Z,1009.05
2019-04-10T10:29:20.362Z,1009.04
2019-04-10T10:30:20.488Z,1009.10
2019-04-10T10:31:20.629Z,1009.03
2019-04-10T10:32:21.270Z,1009.13
2019-04-10T10:33:21.583Z,1009.01
2019-04-10T10:34:20.992Z,1009.02
2019-04-10T10:35:21.104Z,1009.09
2019-04-10T10:36:22.150Z,1009.06
2019-04-10T10:37:22.178Z,1009.05
2019-04-10T10:38:21.693Z,1008.99
2019-04-10T10:39:22.979Z,1009.02
2019-04-10T10:40:21.922Z,1009.13
2019-04-10T10:41:22.291Z,1009.06
2019-04-10T10:42:23.360Z,1009.05
2019-04-10T10:43:22.605Z,1009.05
2019-04-10T10:44:22.443Z,1009.09
2019-04-10T10:45:22.854Z,1009.05
2019-04-10T10:46:23.075Z,1009.13
2019-04-10T10:47:22.822Z,1009.04
2019-04-10T10:48:23.987Z,1009.06
2019-04-10T10:49:23.100Z,1009.07
2019-04-10T10:50:23.664Z,1009.14
2019-04-10T10:51:23.499Z,1009.17
2019-04-10T10:52:23.709Z,1009.07
2019-04-10T10:53:24.046Z,1009.10
2019-04-10T10:54:23.739Z,1009.07
2019-04-10T10:55:23.844Z,1009.05
2019-04-10T10:56:24.455Z,1009.14
2019-04-10T10:57:24.858Z,1009.11
2019-04-10T10:58:24.214Z,1009.13
2019-04-10T10:59:25.184Z,1009.11
2019-04-10T11:00:25.217Z,1009.15
2019-04-10T11:01:24.584Z,1009.11
2019-04-10T11:02:25.567Z,1009.20
2019-04-10T11:03:24.871Z,1009.09
2019-04-10T11:04:24.966Z,1009.11
2019-04-10T11:05:25.300Z,1009.12
2019-04-10T11:06:25.237Z,1009.12
2019-04-10T11:07:25.360Z,1009.11
2019-04-10T11:08:25.478Z,1009.08
2019-04-10T11:09:26.205Z,1009.12
2019-04-10T11:10:27.503Z,1009.13
2019-04-10T11:11:25.898Z,1009.04
2019-04-10T11:12:26.374Z,1009.06
2019-04-10T11:13:26.599Z,1009.07
2019-04-10T11:14:27.599Z,1009.09
2019-04-10T11:15:26.368Z,1009.09
2019-04-10T11:16:27.184Z,1009.10
2019-04-10T11:17:28.176Z,1009.12
2019-04-10T11:18:26.757Z,1009.06
2019-04-10T11:19:27.158Z,1009.09
2019-04-10T11:20:28.035Z,1009.11
2019-04-10T11:21:27.467Z,1009.13
2019-04-10T11:22:27.303Z,1009.05
2019-04-10T11:23:28.473Z,1009.15
2019-04-10T11:24:27.539Z,1009.13
2019-04-10T11:25:28.623Z,1009.11
2019-04-10T11:26:27.799Z,1009.08
2019-04-10T11:27:28.110Z,1009.12
2019-04-10T11:28:30.236Z,1009.08
2019-04-10T11:29:28.764Z,1009.12
2019-04-10T11:30:28.769Z,1009.14
2019-04-10T11:31:29.146Z,1009.21
2019-04-10T11:32:28.952Z,1009.16
2019-04-10T11:33:28.682Z,1009.23
2019-04-10T11:34:29.348Z,1009.28
2019-04-10T11:35:29.075Z,1009.26
2019-04-10T11:36:30.063Z,1009.20
2019-04-10T11:38:29.331Z,1009.25
2019-04-10T11:39:33.085Z,1009.20
2019-04-10T11:40:29.750Z,1009.23
2019-04-10T11:41:31.206Z,1009.16
2019-04-10T11:42:32.169Z,1009.25
2019-04-10T11:43:30.384Z,1009.29
2019-04-10T11:44:30.074Z,1009.27
2019-04-10T11:45:37.974Z,1009.22
2019-04-10T11:46:32.135Z,1009.21
2019-04-10T11:47:32.523Z,1009.23
2019-04-10T11:48:32.004Z,1009.23
2019-04-10T11:49:31.608Z,1009.26
2019-04-10T11:50:32.161Z,1009.21
2019-04-10T11:51:33.427Z,1009.25
2019-04-10T11:52:36.282Z,1009.18
2019-04-10T11:53:35.338Z,1009.20
2019-04-10T11:54:32.767Z,1009.17
2019-04-10T11:55:35.409Z,1009.26
2019-04-10T11:56:33.779Z,1009.28
2019-04-10T11:57:32.593Z,1009.32
2019-04-10T11:58:31.807Z,1009.28
2019-04-10T11:59:35.648Z,1009.24
2019-04-10T12:00:34.216Z,1009.24
2019-04-10T12:01:34.251Z,1009.30
2019-04-10T12:02:34.359Z,1009.22
2019-04-10T12:03:34.514Z,1009.31
2019-04-10T12:04:43.525Z,1009.25
2019-04-10T12:05:33.294Z,1009.23
2019-04-10T12:06:33.908Z,1009.27
2019-04-10T12:08:10.944Z,1009.22